sensor_id;sensor_type;location;lat;lon;timestamp;P1;durP1;ratioP1;P2;durP2;ratioP2
32319;SDS011;19080;51.750;5.888;2023-01-01T00:02:22;22.65;;;10.70;;
32319;SDS011;19080;51.750;5.888;2023-01-01T00:04:48;21.33;;;11.48;;
32319;SDS011;19080;51.750;5.888;2023-01-01T00:07:15;19.10;;;10.20;;
32319;SDS011;19080;51.750;5.888;2023-01-01T00:09:41;22.25;;;9.88;;
32319;SDS011;19080;51.750;5.888;2023-01-01T00:12:27;21.35;;;9.73;;
32319;SDS011;19080;51.750;5.888;2023-01-01T00:14:53;21.88;;;10.65;;
32319;SDS011;19080;51.750;5.888;2023-01-01T00:17:20;18.20;;;10.00;;
32319;SDS011;19080;51.750;5.888;2023-01-01T00:19:47;18.90;;;9.93;;
32319;SDS011;19080;51.750;5.888;2023-01-01T00:22:13;22.13;;;9.52;;
32319;SDS011;19080;51.750;5.888;2023-01-01T00:25:00;21.02;;;8.75;;
32319;SDS011;19080;51.750;5.888;2023-01-01T00:27:26;16.80;;;8.00;;
32319;SDS011;19080;51.750;5.888;2023-01-01T00:29:53;19.63;;;8.15;;
32319;SDS011;19080;51.750;5.888;2023-01-01T00:32:19;18.20;;;7.85;;
32319;SDS011;19080;51.750;5.888;2023-01-01T00:34:48;18.23;;;7.40;;
32319;SDS011;19080;51.750;5.888;2023-01-01T00:37:15;12.20;;;5.28;;
32319;SDS011;19080;51.750;5.888;2023-01-01T00:39:43;14.93;;;5.78;;
32319;SDS011;19080;51.750;5.888;2023-01-01T00:42:10;13.07;;;6.00;;
32319;SDS011;19080;51.750;5.888;2023-01-01T00:44:36;20.90;;;7.20;;
32319;SDS011;19080;51.750;5.888;2023-01-01T00:47:03;17.15;;;5.80;;
32319;SDS011;19080;51.750;5.888;2023-01-01T00:49:29;18.33;;;4.40;;
32319;SDS011;19080;51.750;5.888;2023-01-01T00:51:56;15.38;;;4.90;;
32319;SDS011;19080;51.750;5.888;2023-01-01T00:54:22;13.77;;;4.50;;
32319;SDS011;19080;51.750;5.888;2023-01-01T00:56:49;10.65;;;4.53;;
32319;SDS011;19080;51.750;5.888;2023-01-01T00:59:15;13.73;;;4.22;;
32319;SDS011;19080;51.750;5.888;2023-01-01T01:01:42;9.68;;;3.95;;
32319;SDS011;19080;51.750;5.888;2023-01-01T01:04:08;11.25;;;3.47;;
32319;SDS011;19080;51.750;5.888;2023-01-01T01:06:35;12.65;;;3.83;;
32319;SDS011;19080;51.750;5.888;2023-01-01T01:09:02;9.80;;;3.55;;
32319;SDS011;19080;51.750;5.888;2023-01-01T01:11:29;15.45;;;4.40;;
32319;SDS011;19080;51.750;5.888;2023-01-01T01:13:56;13.73;;;3.70;;
32319;SDS011;19080;51.750;5.888;2023-01-01T01:16:24;14.77;;;4.30;;
32319;SDS011;19080;51.750;5.888;2023-01-01T01:18:54;14.73;;;4.97;;
32319;SDS011;19080;51.750;5.888;2023-01-01T01:21:26;14.52;;;4.47;;
32319;SDS011;19080;51.750;5.888;2023-01-01T01:23:56;7.82;;;3.08;;
32319;SDS011;19080;51.750;5.888;2023-01-01T01:26:25;10.55;;;4.30;;
32319;SDS011;19080;51.750;5.888;2023-01-01T01:28:57;11.40;;;4.00;;
32319;SDS011;19080;51.750;5.888;2023-01-01T01:31:25;7.40;;;2.95;;
32319;SDS011;19080;51.750;5.888;2023-01-01T01:33:53;11.75;;;3.70;;
32319;SDS011;19080;51.750;5.888;2023-01-01T01:36:20;9.10;;;2.83;;
32319;SDS011;19080;51.750;5.888;2023-01-01T01:38:47;12.63;;;3.03;;
32319;SDS011;19080;51.750;5.888;2023-01-01T01:41:15;10.20;;;2.80;;
32319;SDS011;19080;51.750;5.888;2023-01-01T01:43:57;10.52;;;2.60;;
32319;SDS011;19080;51.750;5.888;2023-01-01T01:46:31;11.45;;;2.40;;
32319;SDS011;19080;51.750;5.888;2023-01-01T01:49:00;6.78;;;2.25;;
32319;SDS011;19080;51.750;5.888;2023-01-01T01:51:38;9.10;;;2.28;;
32319;SDS011;19080;51.750;5.888;2023-01-01T01:54:07;5.78;;;2.22;;
32319;SDS011;19080;51.750;5.888;2023-01-01T01:59:08;7.00;;;2.58;;
32319;SDS011;19080;51.750;5.888;2023-01-01T02:01:35;9.18;;;2.95;;
32319;SDS011;19080;51.750;5.888;2023-01-01T02:04:02;6.43;;;2.75;;
32319;SDS011;19080;51.750;5.888;2023-01-01T02:06:29;7.40;;;3.10;;
32319;SDS011;19080;51.750;5.888;2023-01-01T02:08:58;13.15;;;3.17;;
32319;SDS011;19080;51.750;5.888;2023-01-01T02:11:27;9.05;;;2.53;;
32319;SDS011;19080;51.750;5.888;2023-01-01T02:13:53;7.20;;;2.85;;
32319;SDS011;19080;51.750;5.888;2023-01-01T02:24:51;10.15;;;2.47;;
32319;SDS011;19080;51.750;5.888;2023-01-01T02:30:32;7.05;;;2.42;;
32319;SDS011;19080;51.750;5.888;2023-01-01T02:33:07;7.30;;;2.60;;
32319;SDS011;19080;51.750;5.888;2023-01-01T02:35:42;8.98;;;2.25;;
32319;SDS011;19080;51.750;5.888;2023-01-01T02:38:48;6.25;;;2.22;;
32319;SDS011;19080;51.750;5.888;2023-01-01T02:41:20;10.25;;;2.33;;
32319;SDS011;19080;51.750;5.888;2023-01-01T02:43:51;7.85;;;2.30;;
32319;SDS011;19080;51.750;5.888;2023-01-01T02:46:19;5.35;;;2.30;;
32319;SDS011;19080;51.750;5.888;2023-01-01T02:48:51;7.90;;;2.63;;
32319;SDS011;19080;51.750;5.888;2023-01-01T02:53:54;10.48;;;2.75;;
32319;SDS011;19080;51.750;5.888;2023-01-01T02:59:46;10.43;;;2.70;;
32319;SDS011;19080;51.750;5.888;2023-01-01T03:11:41;8.63;;;2.45;;
32319;SDS011;19080;51.750;5.888;2023-01-01T03:19:23;8.73;;;2.38;;
32319;SDS011;19080;51.750;5.888;2023-01-01T03:21:58;7.53;;;2.40;;
32319;SDS011;19080;51.750;5.888;2023-01-01T03:24:59;7.07;;;2.33;;
32319;SDS011;19080;51.750;5.888;2023-01-01T03:27:36;8.55;;;2.50;;
32319;SDS011;19080;51.750;5.888;2023-01-01T03:30:10;7.05;;;2.33;;
32319;SDS011;19080;51.750;5.888;2023-01-01T03:32:55;8.15;;;2.15;;
32319;SDS011;19080;51.750;5.888;2023-01-01T03:35:31;5.20;;;1.92;;
32319;SDS011;19080;51.750;5.888;2023-01-01T03:38:05;6.30;;;1.83;;
32319;SDS011;19080;51.750;5.888;2023-01-01T03:40:40;7.35;;;2.22;;
32319;SDS011;19080;51.750;5.888;2023-01-01T03:46:07;6.13;;;1.77;;
32319;SDS011;19080;51.750;5.888;2023-01-01T03:48:36;5.20;;;2.10;;
32319;SDS011;19080;51.750;5.888;2023-01-01T03:51:42;3.72;;;1.83;;
32319;SDS011;19080;51.750;5.888;2023-01-01T03:57:04;5.97;;;1.92;;
32319;SDS011;19080;51.750;5.888;2023-01-01T04:02:22;5.90;;;1.60;;
32319;SDS011;19080;51.750;5.888;2023-01-01T04:04:54;3.25;;;1.40;;
32319;SDS011;19080;51.750;5.888;2023-01-01T04:07:23;9.80;;;2.15;;
32319;SDS011;19080;51.750;5.888;2023-01-01T04:09:50;6.30;;;2.08;;
32319;SDS011;19080;51.750;5.888;2023-01-01T04:12:20;7.10;;;2.00;;
32319;SDS011;19080;51.750;5.888;2023-01-01T04:14:47;6.47;;;1.95;;
32319;SDS011;19080;51.750;5.888;2023-01-01T04:17:13;9.18;;;2.22;;
32319;SDS011;19080;51.750;5.888;2023-01-01T04:19:40;4.57;;;1.60;;
32319;SDS011;19080;51.750;5.888;2023-01-01T04:22:07;5.10;;;2.15;;
32319;SDS011;19080;51.750;5.888;2023-01-01T04:24:34;5.22;;;1.65;;
32319;SDS011;19080;51.750;5.888;2023-01-01T04:27:00;7.47;;;2.15;;
32319;SDS011;19080;51.750;5.888;2023-01-01T04:29:27;7.03;;;2.10;;
32319;SDS011;19080;51.750;5.888;2023-01-01T04:31:53;15.15;;;2.72;;
32319;SDS011;19080;51.750;5.888;2023-01-01T04:34:20;6.70;;;1.85;;
32319;SDS011;19080;51.750;5.888;2023-01-01T04:36:47;7.13;;;1.95;;
32319;SDS011;19080;51.750;5.888;2023-01-01T04:39:13;7.65;;;1.70;;
32319;SDS011;19080;51.750;5.888;2023-01-01T04:41:40;5.50;;;1.70;;
32319;SDS011;19080;51.750;5.888;2023-01-01T04:44:06;5.22;;;1.77;;
32319;SDS011;19080;51.750;5.888;2023-01-01T04:46:33;8.15;;;2.42;;
32319;SDS011;19080;51.750;5.888;2023-01-01T04:48:59;11.40;;;2.08;;
32319;SDS011;19080;51.750;5.888;2023-01-01T04:51:26;4.63;;;1.65;;
32319;SDS011;19080;51.750;5.888;2023-01-01T04:53:53;6.82;;;2.05;;
32319;SDS011;19080;51.750;5.888;2023-01-01T04:56:20;6.90;;;1.90;;
32319;SDS011;19080;51.750;5.888;2023-01-01T04:58:47;4.07;;;1.58;;
32319;SDS011;19080;51.750;5.888;2023-01-01T05:01:15;6.78;;;1.90;;
32319;SDS011;19080;51.750;5.888;2023-01-01T05:06:14;7.53;;;1.95;;
32319;SDS011;19080;51.750;5.888;2023-01-01T05:08:42;6.25;;;1.55;;
32319;SDS011;19080;51.750;5.888;2023-01-01T05:11:16;12.43;;;2.47;;
32319;SDS011;19080;51.750;5.888;2023-01-01T05:13:46;7.60;;;1.80;;
32319;SDS011;19080;51.750;5.888;2023-01-01T05:16:15;10.48;;;1.85;;
32319;SDS011;19080;51.750;5.888;2023-01-01T05:18:44;5.53;;;1.85;;
32319;SDS011;19080;51.750;5.888;2023-01-01T05:21:15;11.93;;;2.10;;
32319;SDS011;19080;51.750;5.888;2023-01-01T05:23:44;6.15;;;1.90;;
32319;SDS011;19080;51.750;5.888;2023-01-01T05:26:15;4.70;;;2.00;;
32319;SDS011;19080;51.750;5.888;2023-01-01T05:28:47;7.40;;;2.10;;
32319;SDS011;19080;51.750;5.888;2023-01-01T05:31:16;7.95;;;1.88;;
32319;SDS011;19080;51.750;5.888;2023-01-01T05:33:44;8.18;;;2.35;;
32319;SDS011;19080;51.750;5.888;2023-01-01T05:36:14;10.18;;;2.17;;
32319;SDS011;19080;51.750;5.888;2023-01-01T05:38:43;8.73;;;2.13;;
32319;SDS011;19080;51.750;5.888;2023-01-01T05:41:11;5.70;;;2.20;;
32319;SDS011;19080;51.750;5.888;2023-01-01T05:43:39;5.00;;;2.03;;
32319;SDS011;19080;51.750;5.888;2023-01-01T05:46:09;10.52;;;2.05;;
32319;SDS011;19080;51.750;5.888;2023-01-01T05:48:39;6.25;;;1.80;;
32319;SDS011;19080;51.750;5.888;2023-01-01T05:51:06;7.82;;;1.92;;
32319;SDS011;19080;51.750;5.888;2023-01-01T05:53:35;12.55;;;2.15;;
32319;SDS011;19080;51.750;5.888;2023-01-01T05:56:02;9.73;;;1.90;;
32319;SDS011;19080;51.750;5.888;2023-01-01T05:58:30;6.05;;;1.95;;
32319;SDS011;19080;51.750;5.888;2023-01-01T06:01:16;4.65;;;1.67;;
32319;SDS011;19080;51.750;5.888;2023-01-01T06:03:43;4.45;;;1.90;;
32319;SDS011;19080;51.750;5.888;2023-01-01T06:06:11;5.68;;;1.73;;
32319;SDS011;19080;51.750;5.888;2023-01-01T06:08:40;8.90;;;2.63;;
32319;SDS011;19080;51.750;5.888;2023-01-01T06:11:09;7.03;;;1.92;;
32319;SDS011;19080;51.750;5.888;2023-01-01T06:13:36;8.00;;;2.25;;
32319;SDS011;19080;51.750;5.888;2023-01-01T06:16:03;9.30;;;2.03;;
32319;SDS011;19080;51.750;5.888;2023-01-01T06:18:31;6.32;;;1.83;;
32319;SDS011;19080;51.750;5.888;2023-01-01T06:21:04;8.65;;;2.45;;
32319;SDS011;19080;51.750;5.888;2023-01-01T06:23:30;7.97;;;2.20;;
32319;SDS011;19080;51.750;5.888;2023-01-01T06:26:02;11.45;;;3.05;;
32319;SDS011;19080;51.750;5.888;2023-01-01T06:28:49;3.90;;;1.90;;
32319;SDS011;19080;51.750;5.888;2023-01-01T06:31:17;6.88;;;2.13;;
32319;SDS011;19080;51.750;5.888;2023-01-01T06:33:48;4.28;;;1.95;;
32319;SDS011;19080;51.750;5.888;2023-01-01T06:36:17;5.72;;;2.10;;
32319;SDS011;19080;51.750;5.888;2023-01-01T06:38:46;9.13;;;2.58;;
32319;SDS011;19080;51.750;5.888;2023-01-01T06:41:15;7.00;;;2.03;;
32319;SDS011;19080;51.750;5.888;2023-01-01T06:43:43;8.75;;;1.92;;
32319;SDS011;19080;51.750;5.888;2023-01-01T06:48:51;6.88;;;2.40;;
32319;SDS011;19080;51.750;5.888;2023-01-01T06:51:22;7.78;;;1.85;;
32319;SDS011;19080;51.750;5.888;2023-01-01T06:53:51;6.30;;;1.40;;
32319;SDS011;19080;51.750;5.888;2023-01-01T06:56:19;9.25;;;1.52;;
32319;SDS011;19080;51.750;5.888;2023-01-01T06:58:46;10.07;;;1.80;;
32319;SDS011;19080;51.750;5.888;2023-01-01T07:01:13;5.72;;;1.55;;
32319;SDS011;19080;51.750;5.888;2023-01-01T07:03:43;5.97;;;1.80;;
32319;SDS011;19080;51.750;5.888;2023-01-01T07:06:15;8.18;;;2.25;;
32319;SDS011;19080;51.750;5.888;2023-01-01T07:08:41;3.70;;;1.10;;
32319;SDS011;19080;51.750;5.888;2023-01-01T07:11:08;5.53;;;1.80;;
32319;SDS011;19080;51.750;5.888;2023-01-01T07:13:34;7.85;;;1.95;;
32319;SDS011;19080;51.750;5.888;2023-01-01T07:16:01;5.47;;;2.10;;
32319;SDS011;19080;51.750;5.888;2023-01-01T07:18:37;4.75;;;1.60;;
32319;SDS011;19080;51.750;5.888;2023-01-01T07:21:04;7.45;;;2.10;;
32319;SDS011;19080;51.750;5.888;2023-01-01T07:23:33;4.70;;;1.98;;
32319;SDS011;19080;51.750;5.888;2023-01-01T07:26:00;6.97;;;2.00;;
32319;SDS011;19080;51.750;5.888;2023-01-01T07:28:27;5.88;;;1.52;;
32319;SDS011;19080;51.750;5.888;2023-01-01T07:30:53;6.13;;;1.65;;
32319;SDS011;19080;51.750;5.888;2023-01-01T07:33:21;7.65;;;1.85;;
32319;SDS011;19080;51.750;5.888;2023-01-01T07:35:48;4.05;;;1.30;;
32319;SDS011;19080;51.750;5.888;2023-01-01T07:38:15;5.85;;;1.60;;
32319;SDS011;19080;51.750;5.888;2023-01-01T07:40:42;7.20;;;2.03;;
32319;SDS011;19080;51.750;5.888;2023-01-01T07:43:09;9.07;;;1.73;;
32319;SDS011;19080;51.750;5.888;2023-01-01T07:45:37;5.72;;;2.53;;
32319;SDS011;19080;51.750;5.888;2023-01-01T07:48:04;6.68;;;2.22;;
32319;SDS011;19080;51.750;5.888;2023-01-01T07:50:31;7.45;;;2.33;;
32319;SDS011;19080;51.750;5.888;2023-01-01T07:52:58;8.38;;;2.83;;
32319;SDS011;19080;51.750;5.888;2023-01-01T07:55:25;4.80;;;2.67;;
32319;SDS011;19080;51.750;5.888;2023-01-01T07:57:52;5.57;;;3.22;;
32319;SDS011;19080;51.750;5.888;2023-01-01T08:00:20;8.98;;;3.38;;
32319;SDS011;19080;51.750;5.888;2023-01-01T08:02:47;9.63;;;3.83;;
32319;SDS011;19080;51.750;5.888;2023-01-01T08:05:14;10.38;;;3.88;;
32319;SDS011;19080;51.750;5.888;2023-01-01T08:07:48;8.45;;;3.88;;
32319;SDS011;19080;51.750;5.888;2023-01-01T08:10:16;8.02;;;3.25;;
32319;SDS011;19080;51.750;5.888;2023-01-01T08:12:45;8.55;;;3.50;;
32319;SDS011;19080;51.750;5.888;2023-01-01T08:15:12;9.07;;;2.80;;
32319;SDS011;19080;51.750;5.888;2023-01-01T08:17:39;6.53;;;2.35;;
32319;SDS011;19080;51.750;5.888;2023-01-01T08:20:12;8.52;;;2.28;;
32319;SDS011;19080;51.750;5.888;2023-01-01T08:22:40;8.77;;;2.25;;
32319;SDS011;19080;51.750;5.888;2023-01-01T08:25:06;4.47;;;2.03;;
32319;SDS011;19080;51.750;5.888;2023-01-01T08:27:34;7.93;;;2.17;;
32319;SDS011;19080;51.750;5.888;2023-01-01T08:30:00;8.73;;;2.30;;
32319;SDS011;19080;51.750;5.888;2023-01-01T08:32:27;5.07;;;1.90;;
32319;SDS011;19080;51.750;5.888;2023-01-01T08:34:54;8.95;;;2.42;;
32319;SDS011;19080;51.750;5.888;2023-01-01T08:37:20;6.53;;;2.03;;
32319;SDS011;19080;51.750;5.888;2023-01-01T08:39:49;8.40;;;1.83;;
32319;SDS011;19080;51.750;5.888;2023-01-01T08:42:16;9.55;;;2.22;;
32319;SDS011;19080;51.750;5.888;2023-01-01T08:44:43;9.27;;;1.48;;
32319;SDS011;19080;51.750;5.888;2023-01-01T08:47:31;8.35;;;1.88;;
32319;SDS011;19080;51.750;5.888;2023-01-01T08:49:56;7.15;;;1.58;;
32319;SDS011;19080;51.750;5.888;2023-01-01T08:52:23;6.30;;;1.35;;
32319;SDS011;19080;51.750;5.888;2023-01-01T08:54:49;8.48;;;1.60;;
32319;SDS011;19080;51.750;5.888;2023-01-01T08:57:18;8.32;;;2.38;;
32319;SDS011;19080;51.750;5.888;2023-01-01T08:59:45;12.65;;;2.30;;
32319;SDS011;19080;51.750;5.888;2023-01-01T09:02:11;8.45;;;2.20;;
32319;SDS011;19080;51.750;5.888;2023-01-01T09:04:38;6.65;;;1.80;;
32319;SDS011;19080;51.750;5.888;2023-01-01T09:07:05;8.38;;;2.00;;
32319;SDS011;19080;51.750;5.888;2023-01-01T09:09:31;8.00;;;1.92;;
32319;SDS011;19080;51.750;5.888;2023-01-01T09:11:58;12.38;;;3.03;;
32319;SDS011;19080;51.750;5.888;2023-01-01T09:16:58;8.85;;;2.13;;
32319;SDS011;19080;51.750;5.888;2023-01-01T09:19:25;7.35;;;1.85;;
32319;SDS011;19080;51.750;5.888;2023-01-01T09:21:53;8.40;;;1.88;;
32319;SDS011;19080;51.750;5.888;2023-01-01T09:24:19;4.22;;;1.58;;
32319;SDS011;19080;51.750;5.888;2023-01-01T09:26:46;7.78;;;2.63;;
32319;SDS011;19080;51.750;5.888;2023-01-01T09:29:12;7.43;;;1.90;;
32319;SDS011;19080;51.750;5.888;2023-01-01T09:31:43;6.82;;;1.75;;
32319;SDS011;19080;51.750;5.888;2023-01-01T09:34:10;7.22;;;2.08;;
32319;SDS011;19080;51.750;5.888;2023-01-01T09:36:37;4.10;;;1.60;;
32319;SDS011;19080;51.750;5.888;2023-01-01T09:39:03;6.07;;;1.80;;
32319;SDS011;19080;51.750;5.888;2023-01-01T09:44:42;11.13;;;2.35;;
32319;SDS011;19080;51.750;5.888;2023-01-01T09:47:33;6.18;;;1.85;;
32319;SDS011;19080;51.750;5.888;2023-01-01T09:50:05;5.95;;;1.98;;
32319;SDS011;19080;51.750;5.888;2023-01-01T09:52:43;7.68;;;1.80;;
32319;SDS011;19080;51.750;5.888;2023-01-01T09:55:26;9.73;;;2.40;;
32319;SDS011;19080;51.750;5.888;2023-01-01T09:57:54;9.60;;;2.55;;
32319;SDS011;19080;51.750;5.888;2023-01-01T10:00:22;6.25;;;2.60;;
32319;SDS011;19080;51.750;5.888;2023-01-01T10:05:41;5.97;;;2.30;;
32319;SDS011;19080;51.750;5.888;2023-01-01T10:10:56;6.78;;;2.45;;
32319;SDS011;19080;51.750;5.888;2023-01-01T10:13:38;10.18;;;2.88;;
32319;SDS011;19080;51.750;5.888;2023-01-01T11:41:03;9.38;;;3.90;;
32319;SDS011;19080;51.750;5.888;2023-01-01T11:43:37;12.30;;;3.55;;
32319;SDS011;19080;51.750;5.888;2023-01-01T11:46:09;6.25;;;2.83;;
32319;SDS011;19080;51.750;5.888;2023-01-01T11:48:42;12.23;;;4.03;;
32319;SDS011;19080;51.750;5.888;2023-01-01T11:51:09;10.25;;;4.32;;
32319;SDS011;19080;51.750;5.888;2023-01-01T11:53:53;15.30;;;4.82;;
32319;SDS011;19080;51.750;5.888;2023-01-01T11:56:45;10.77;;;3.80;;
32319;SDS011;19080;51.750;5.888;2023-01-01T12:02:28;15.43;;;5.13;;
32319;SDS011;19080;51.750;5.888;2023-01-01T12:07:45;11.80;;;3.60;;
32319;SDS011;19080;51.750;5.888;2023-01-01T12:10:26;15.23;;;3.58;;
32319;SDS011;19080;51.750;5.888;2023-01-01T12:13:05;6.40;;;3.45;;
32319;SDS011;19080;51.750;5.888;2023-01-01T12:15:47;14.07;;;3.97;;
32319;SDS011;19080;51.750;5.888;2023-01-01T12:18:25;11.45;;;3.58;;
32319;SDS011;19080;51.750;5.888;2023-01-01T12:23:30;10.82;;;4.10;;
32319;SDS011;19080;51.750;5.888;2023-01-01T12:26:21;11.52;;;3.33;;
32319;SDS011;19080;51.750;5.888;2023-01-01T12:34:35;13.05;;;5.65;;
32319;SDS011;19080;51.750;5.888;2023-01-01T12:37:31;8.02;;;3.20;;
32319;SDS011;19080;51.750;5.888;2023-01-01T12:43:09;11.15;;;3.15;;
32319;SDS011;19080;51.750;5.888;2023-01-01T12:45:41;7.72;;;2.72;;
32319;SDS011;19080;51.750;5.888;2023-01-01T12:50:50;8.20;;;2.45;;
32319;SDS011;19080;51.750;5.888;2023-01-01T12:53:44;8.55;;;2.80;;
32319;SDS011;19080;51.750;5.888;2023-01-01T12:56:34;10.30;;;2.38;;
32319;SDS011;19080;51.750;5.888;2023-01-01T12:59:06;10.32;;;2.78;;
32319;SDS011;19080;51.750;5.888;2023-01-01T13:01:39;12.25;;;3.05;;
32319;SDS011;19080;51.750;5.888;2023-01-01T13:04:09;13.45;;;2.88;;
32319;SDS011;19080;51.750;5.888;2023-01-01T13:06:39;9.00;;;2.70;;
32319;SDS011;19080;51.750;5.888;2023-01-01T13:09:16;10.27;;;2.83;;
32319;SDS011;19080;51.750;5.888;2023-01-01T13:11:52;14.50;;;5.68;;
32319;SDS011;19080;51.750;5.888;2023-01-01T13:14:41;12.00;;;3.70;;
32319;SDS011;19080;51.750;5.888;2023-01-01T13:17:16;15.20;;;3.60;;
32319;SDS011;19080;51.750;5.888;2023-01-01T13:19:43;10.50;;;2.78;;
32319;SDS011;19080;51.750;5.888;2023-01-01T13:35:36;14.02;;;3.22;;
32319;SDS011;19080;51.750;5.888;2023-01-01T13:38:02;11.65;;;2.88;;
32319;SDS011;19080;51.750;5.888;2023-01-01T13:40:30;10.35;;;2.67;;
32319;SDS011;19080;51.750;5.888;2023-01-01T13:45:31;9.07;;;2.50;;
32319;SDS011;19080;51.750;5.888;2023-01-01T14:02:22;10.38;;;2.53;;
32319;SDS011;19080;51.750;5.888;2023-01-01T14:04:55;9.00;;;2.38;;
32319;SDS011;19080;51.750;5.888;2023-01-01T14:12:51;12.93;;;2.95;;
32319;SDS011;19080;51.750;5.888;2023-01-01T14:15:23;13.23;;;3.05;;
32319;SDS011;19080;51.750;5.888;2023-01-01T14:17:53;16.38;;;3.65;;
32319;SDS011;19080;51.750;5.888;2023-01-01T14:20:22;8.05;;;2.90;;
32319;SDS011;19080;51.750;5.888;2023-01-01T14:22:53;7.47;;;2.70;;
32319;SDS011;19080;51.750;5.888;2023-01-01T14:25:27;9.00;;;2.97;;
32319;SDS011;19080;51.750;5.888;2023-01-01T14:27:55;9.13;;;3.53;;
32319;SDS011;19080;51.750;5.888;2023-01-01T14:30:25;8.02;;;3.22;;
32319;SDS011;19080;51.750;5.888;2023-01-01T14:32:56;8.13;;;3.00;;
32319;SDS011;19080;51.750;5.888;2023-01-01T14:35:27;8.73;;;2.88;;
32319;SDS011;19080;51.750;5.888;2023-01-01T14:37:54;10.60;;;4.50;;
32319;SDS011;19080;51.750;5.888;2023-01-01T14:40:25;12.65;;;3.63;;
32319;SDS011;19080;51.750;5.888;2023-01-01T14:42:55;8.73;;;3.33;;
32319;SDS011;19080;51.750;5.888;2023-01-01T14:45:25;8.13;;;2.63;;
32319;SDS011;19080;51.750;5.888;2023-01-01T14:47:52;8.95;;;3.50;;
32319;SDS011;19080;51.750;5.888;2023-01-01T14:50:26;15.68;;;4.13;;
32319;SDS011;19080;51.750;5.888;2023-01-01T14:53:03;11.15;;;4.45;;
32319;SDS011;19080;51.750;5.888;2023-01-01T14:55:38;14.10;;;5.65;;
32319;SDS011;19080;51.750;5.888;2023-01-01T14:58:21;13.95;;;5.97;;
32319;SDS011;19080;51.750;5.888;2023-01-01T15:00:49;14.23;;;6.30;;
32319;SDS011;19080;51.750;5.888;2023-01-01T15:03:18;17.98;;;7.18;;
32319;SDS011;19080;51.750;5.888;2023-01-01T15:05:56;15.20;;;5.65;;
32319;SDS011;19080;51.750;5.888;2023-01-01T15:08:27;15.85;;;9.10;;
32319;SDS011;19080;51.750;5.888;2023-01-01T15:10:54;29.08;;;14.50;;
32319;SDS011;19080;51.750;5.888;2023-01-01T15:13:26;19.33;;;8.88;;
32319;SDS011;19080;51.750;5.888;2023-01-01T15:15:54;13.50;;;6.38;;
32319;SDS011;19080;51.750;5.888;2023-01-01T15:18:34;12.38;;;6.18;;
32319;SDS011;19080;51.750;5.888;2023-01-01T15:21:53;12.23;;;5.57;;
32319;SDS011;19080;51.750;5.888;2023-01-01T15:23:58;10.48;;;5.05;;
32319;SDS011;19080;51.750;5.888;2023-01-01T15:26:30;14.60;;;5.40;;
32319;SDS011;19080;51.750;5.888;2023-01-01T15:29:09;12.85;;;5.03;;
32319;SDS011;19080;51.750;5.888;2023-01-01T15:31:42;9.18;;;4.72;;
32319;SDS011;19080;51.750;5.888;2023-01-01T15:34:18;11.15;;;5.63;;
32319;SDS011;19080;51.750;5.888;2023-01-01T15:36:50;11.88;;;3.65;;
32319;SDS011;19080;51.750;5.888;2023-01-01T15:39:18;13.57;;;3.30;;
32319;SDS011;19080;51.750;5.888;2023-01-01T15:41:49;6.72;;;3.55;;
32319;SDS011;19080;51.750;5.888;2023-01-01T15:47:14;12.88;;;3.58;;
32319;SDS011;19080;51.750;5.888;2023-01-01T15:49:42;11.77;;;3.55;;
32319;SDS011;19080;51.750;5.888;2023-01-01T15:52:16;10.52;;;3.33;;
32319;SDS011;19080;51.750;5.888;2023-01-01T15:54:50;11.50;;;3.30;;
32319;SDS011;19080;51.750;5.888;2023-01-01T15:57:20;10.43;;;3.13;;
32319;SDS011;19080;51.750;5.888;2023-01-01T15:59:48;13.73;;;3.67;;
32319;SDS011;19080;51.750;5.888;2023-01-01T16:02:26;9.00;;;3.30;;
32319;SDS011;19080;51.750;5.888;2023-01-01T16:04:57;12.25;;;3.60;;
32319;SDS011;19080;51.750;5.888;2023-01-01T16:07:25;12.63;;;4.07;;
32319;SDS011;19080;51.750;5.888;2023-01-01T16:09:53;7.75;;;2.90;;
32319;SDS011;19080;51.750;5.888;2023-01-01T16:12:23;9.60;;;3.20;;
32319;SDS011;19080;51.750;5.888;2023-01-01T16:14:50;15.35;;;4.53;;
32319;SDS011;19080;51.750;5.888;2023-01-01T16:17:18;11.75;;;4.18;;
32319;SDS011;19080;51.750;5.888;2023-01-01T16:19:46;12.05;;;3.85;;
32319;SDS011;19080;51.750;5.888;2023-01-01T16:22:14;11.23;;;3.20;;
32319;SDS011;19080;51.750;5.888;2023-01-01T16:24:42;10.38;;;3.72;;
32319;SDS011;19080;51.750;5.888;2023-01-01T16:27:10;13.38;;;4.78;;
32319;SDS011;19080;51.750;5.888;2023-01-01T16:29:37;12.18;;;4.05;;
32319;SDS011;19080;51.750;5.888;2023-01-01T16:32:17;11.98;;;5.65;;
32319;SDS011;19080;51.750;5.888;2023-01-01T16:34:44;10.88;;;5.30;;
32319;SDS011;19080;51.750;5.888;2023-01-01T16:37:11;11.77;;;6.40;;
32319;SDS011;19080;51.750;5.888;2023-01-01T16:39:37;11.95;;;5.40;;
32319;SDS011;19080;51.750;5.888;2023-01-01T16:42:04;16.10;;;8.20;;
32319;SDS011;19080;51.750;5.888;2023-01-01T16:44:31;19.77;;;9.02;;
32319;SDS011;19080;51.750;5.888;2023-01-01T16:46:57;17.92;;;6.82;;
32319;SDS011;19080;51.750;5.888;2023-01-01T16:49:24;13.60;;;6.22;;
32319;SDS011;19080;51.750;5.888;2023-01-01T16:51:50;9.30;;;4.70;;
32319;SDS011;19080;51.750;5.888;2023-01-01T16:54:17;12.02;;;4.10;;
32319;SDS011;19080;51.750;5.888;2023-01-01T16:56:43;11.50;;;3.92;;
32319;SDS011;19080;51.750;5.888;2023-01-01T16:59:10;9.73;;;3.83;;
32319;SDS011;19080;51.750;5.888;2023-01-01T17:01:36;7.03;;;3.30;;
32319;SDS011;19080;51.750;5.888;2023-01-01T17:04:03;7.85;;;3.60;;
32319;SDS011;19080;51.750;5.888;2023-01-01T17:06:30;13.82;;;5.75;;
32319;SDS011;19080;51.750;5.888;2023-01-01T17:08:59;11.80;;;4.95;;
32319;SDS011;19080;51.750;5.888;2023-01-01T17:11:26;8.80;;;4.38;;
32319;SDS011;19080;51.750;5.888;2023-01-01T17:13:53;12.05;;;4.68;;
32319;SDS011;19080;51.750;5.888;2023-01-01T17:16:20;9.98;;;4.20;;
32319;SDS011;19080;51.750;5.888;2023-01-01T17:18:54;11.18;;;4.25;;
32319;SDS011;19080;51.750;5.888;2023-01-01T17:21:41;19.65;;;7.13;;
32319;SDS011;19080;51.750;5.888;2023-01-01T17:24:08;12.98;;;5.40;;
32319;SDS011;19080;51.750;5.888;2023-01-01T17:26:35;14.00;;;6.80;;
32319;SDS011;19080;51.750;5.888;2023-01-01T17:29:01;13.02;;;7.30;;
32319;SDS011;19080;51.750;5.888;2023-01-01T17:31:32;16.35;;;7.50;;
32319;SDS011;19080;51.750;5.888;2023-01-01T17:33:59;13.23;;;6.13;;
32319;SDS011;19080;51.750;5.888;2023-01-01T17:36:26;16.08;;;7.68;;
32319;SDS011;19080;51.750;5.888;2023-01-01T17:38:53;16.45;;;8.52;;
32319;SDS011;19080;51.750;5.888;2023-01-01T17:41:20;14.65;;;6.20;;
32319;SDS011;19080;51.750;5.888;2023-01-01T17:43:48;15.45;;;5.20;;
32319;SDS011;19080;51.750;5.888;2023-01-01T17:46:17;12.15;;;4.30;;
32319;SDS011;19080;51.750;5.888;2023-01-01T17:48:46;12.80;;;5.80;;
32319;SDS011;19080;51.750;5.888;2023-01-01T17:51:13;18.17;;;6.93;;
32319;SDS011;19080;51.750;5.888;2023-01-01T17:53:40;13.98;;;6.20;;
32319;SDS011;19080;51.750;5.888;2023-01-01T17:56:08;15.13;;;6.68;;
32319;SDS011;19080;51.750;5.888;2023-01-01T17:58:38;16.63;;;6.43;;
32319;SDS011;19080;51.750;5.888;2023-01-01T18:03:41;6.97;;;3.88;;
32319;SDS011;19080;51.750;5.888;2023-01-01T18:06:08;11.68;;;3.85;;
32319;SDS011;19080;51.750;5.888;2023-01-01T18:08:34;12.00;;;3.20;;
32319;SDS011;19080;51.750;5.888;2023-01-01T18:11:01;9.00;;;3.15;;
32319;SDS011;19080;51.750;5.888;2023-01-01T18:13:27;8.40;;;2.67;;
32319;SDS011;19080;51.750;5.888;2023-01-01T18:15:58;8.45;;;2.90;;
32319;SDS011;19080;51.750;5.888;2023-01-01T18:18:26;11.90;;;4.38;;
32319;SDS011;19080;51.750;5.888;2023-01-01T18:20:59;10.50;;;3.65;;
32319;SDS011;19080;51.750;5.888;2023-01-01T18:23:34;9.70;;;3.95;;
32319;SDS011;19080;51.750;5.888;2023-01-01T18:26:01;12.43;;;4.13;;